Time;durP1;ratioP1;P1;durP2;ratioP2;P2;SDS_P1;SDS_P2;PMS_P1;PMS_P2;Temp;Humidity;BMP_temperature;BMP_pressure;BME280_temperature;BME280_humidity;BME280_pressure;Samples;Min_cycle;Max_cycle;Signal;HPM_P1;HPM_P2
2022/06/12 00:00:19;;;;;;;7.55;6.15;;;22.40;67.90;;;;;;5028260;28;20079;-59
2022/06/12 00:02:45;;;;;;;6.43;5.32;;;22.40;68.10;;;;;;5023901;28;20439;-59
2022/06/12 00:05:14;;;;;;;6.80;5.45;;;22.30;68.20;;;;;;5032466;28;20039;-59
2022/06/12 00:07:40;;;;;;;6.75;5.28;;;22.40;68.00;;;;;;5028966;28;20620;-58
2022/06/12 00:10:07;;;;;;;6.32;5.30;;;22.30;67.70;;;;;;5031312;28;20453;-58
2022/06/12 00:12:32;;;;;;;6.47;5.78;;;22.30;67.70;;;;;;5025187;28;20541;-58
2022/06/12 00:14:58;;;;;;;6.70;5.78;;;22.30;68.00;;;;;;5027961;28;20112;-59
2022/06/12 00:17:23;;;;;;;6.60;5.20;;;22.30;67.90;;;;;;5023691;28;20021;-59
2022/06/12 00:19:50;;;;;;;5.65;5.03;;;22.20;67.80;;;;;;5028622;28;20017;-59
2022/06/12 00:22:18;;;;;;;6.78;5.20;;;22.30;67.80;;;;;;5022245;28;20124;-59
2022/06/12 00:24:44;;;;;;;5.82;4.95;;;22.20;67.80;;;;;;5028604;28;20029;-59
2022/06/12 00:27:09;;;;;;;5.57;5.00;;;22.20;67.90;;;;;;5024507;28;20155;-58
2022/06/12 00:29:37;;;;;;;5.85;5.00;;;22.20;67.80;;;;;;5031329;28;20025;-58
2022/06/12 00:32:05;;;;;;;6.28;5.47;;;22.20;67.60;;;;;;5032501;28;20087;-58
2022/06/12 00:34:38;;;;;;;7.70;4.93;;;22.20;67.40;;;;;;5025885;28;20029;-58
2022/06/12 00:37:05;;;;;;;5.35;4.80;;;22.20;67.20;;;;;;5026060;28;20104;-59
2022/06/12 00:39:32;;;;;;;5.95;5.05;;;22.10;67.20;;;;;;5028197;28;20095;-59
2022/06/12 00:41:59;;;;;;;5.57;4.65;;;22.10;67.20;;;;;;5023382;28;20025;-59
2022/06/12 00:44:30;;;;;;;5.63;5.00;;;22.10;67.20;;;;;;5030431;28;20112;-59
2022/06/12 00:47:00;;;;;;;;;;;22.10;67.20;;;;;;5028878;28;20052;-58
2022/06/12 00:49:34;;;;;;;5.07;4.38;;;22.10;67.20;;;;;;5022390;28;19912;-59
2022/06/12 00:52:21;;;;;;;5.47;4.82;;;22.10;67.20;;;;;;5031896;28;20036;-59
2022/06/12 00:54:50;;;;;;;5.00;4.50;;;22.10;66.90;;;;;;5029228;28;20066;-59
2022/06/12 00:57:18;;;;;;;6.05;5.13;;;22.00;67.40;;;;;;5026687;28;20112;-58
2022/06/12 01:00:01;;;;;;;4.32;3.85;;;22.00;67.10;;;;;;5029219;28;20109;-58
2022/06/12 01:02:31;;;;;;;6.07;4.03;;;22.00;66.10;;;;;;5029785;28;20053;-58
2022/06/12 01:07:50;;;;;;;4.80;4.13;;;22.00;65.80;;;;;;5027221;28;20066;-59
2022/06/12 01:10:18;;;;;;;4.35;3.95;;;22.10;65.80;;;;;;5030200;28;20366;-59
2022/06/12 01:12:48;;;;;;;5.20;4.10;;;22.00;65.10;;;;;;5031940;28;20022;-58
2022/06/12 01:15:40;;;;;;;5.00;4.50;;;22.00;64.80;;;;;;5015243;28;20065;-58
2022/06/12 01:18:10;;;;;;;5.03;4.32;;;22.00;64.70;;;;;;5031297;28;20367;-58
2022/06/12 01:20:58;;;;;;;4.22;3.83;;;22.00;64.60;;;;;;5020815;28;20053;-59
2022/06/12 01:23:39;;;;;;;5.03;4.00;;;22.00;64.40;;;;;;5020806;28;20044;-58
2022/06/12 01:26:16;;;;;;;4.50;4.05;;;21.90;64.00;;;;;;5030482;28;20033;-58
2022/06/12 01:29:04;;;;;;;5.22;3.83;;;21.90;64.20;;;;;;5027561;28;20511;-59
2022/06/12 01:31:54;;;;;;;5.47;4.15;;;21.90;64.70;;;;;;5025700;28;20419;-58
2022/06/12 01:34:57;;;;;;;6.10;4.05;;;21.90;64.70;;;;;;5029128;28;20061;-59
2022/06/12 01:37:49;;;;;;;4.47;3.58;;;21.90;64.50;;;;;;5033862;28;20097;-59
2022/06/12 01:40:52;;;;;;;4.00;3.60;;;21.90;64.30;;;;;;5024538;28;20041;-59
2022/06/12 01:43:29;;;;;;;6.88;3.92;;;21.90;64.50;;;;;;5024197;28;20021;-58
2022/06/12 01:46:15;;;;;;;4.07;3.67;;;21.90;64.50;;;;;;5028868;28;20052;-58
2022/06/12 01:48:49;;;;;;;6.47;4.20;;;21.90;64.70;;;;;;5031773;28;20059;-59
2022/06/12 01:51:47;;;;;;;3.63;3.33;;;21.90;64.70;;;;;;5026347;28;20136;-58
2022/06/12 01:54:25;;;;;;;4.75;3.70;;;21.90;64.60;;;;;;5020456;28;20037;-59
2022/06/12 01:57:16;;;;;;;4.60;3.78;;;21.90;64.70;;;;;;5034000;28;20049;-58
2022/06/12 01:59:54;;;;;;;4.72;3.33;;;21.90;64.90;;;;;;5028348;28;20065;-58
2022/06/12 02:02:34;;;;;;;4.95;4.00;;;21.80;65.00;;;;;;5035461;28;20482;-58
2022/06/12 02:05:15;;;;;;;4.70;3.88;;;21.90;64.60;;;;;;5033786;28;20033;-58
2022/06/12 02:07:47;;;;;;;5.22;3.75;;;21.90;64.20;;;;;;5030240;28;20033;-57
2022/06/12 02:10:23;;;;;;;4.65;3.80;;;21.90;63.80;;;;;;5033067;28;20084;-58
2022/06/12 02:13:12;;;;;;;3.90;3.40;;;21.90;63.40;;;;;;5035476;28;20079;-58
2022/06/12 02:15:59;;;;;;;4.30;3.75;;;22.00;62.90;;;;;;5030019;28;20041;-58
2022/06/12 02:18:39;;;;;;;5.72;3.70;;;22.00;62.80;;;;;;5023822;28;20031;-58
2022/06/12 02:21:18;;;;;;;5.95;3.53;;;22.00;62.70;;;;;;5033687;28;20801;-59
2022/06/12 02:23:55;;;;;;;4.03;3.55;;;22.10;62.70;;;;;;5029556;28;20033;-58
2022/06/12 02:26:26;;;;;;;4.28;3.45;;;22.10;62.50;;;;;;5029871;28;20029;-59
2022/06/12 02:28:58;;;;;;;5.18;3.70;;;22.20;62.40;;;;;;5031408;28;20037;-58
2022/06/12 02:31:30;;;;;;;4.03;3.35;;;22.20;62.30;;;;;;5034084;28;20075;-59
2022/06/12 02:34:00;;;;;;;4.13;3.40;;;22.20;62.20;;;;;;5035091;28;20021;-58
2022/06/12 02:36:31;;;;;;;4.60;3.60;;;22.30;62.20;;;;;;5034060;28;20156;-59
2022/06/12 02:39:01;;;;;;;4.45;3.55;;;22.30;61.90;;;;;;5032955;28;20025;-58
2022/06/12 02:41:33;;;;;;;3.95;3.55;;;22.30;61.60;;;;;;5025938;28;20073;-58
2022/06/12 02:44:07;;;;;;;4.90;3.33;;;22.40;61.50;;;;;;5027333;28;20112;-59
2022/06/12 02:46:35;;;;;;;3.45;3.15;;;22.40;61.50;;;;;;5030813;28;20053;-59
2022/06/12 02:49:04;;;;;;;4.18;3.30;;;22.50;61.50;;;;;;5029619;28;20069;-59
2022/06/12 02:52:01;;;;;;;3.78;3.25;;;22.50;61.30;;;;;;5033534;28;20037;-58
2022/06/12 02:54:45;;;;;;;4.65;3.47;;;22.60;61.10;;;;;;5033015;28;20505;-59
2022/06/12 02:57:27;;;;;;;4.07;3.47;;;22.60;62.00;;;;;;5032923;28;20031;-59
2022/06/12 03:00:28;;;;;;;3.83;3.42;;;22.70;61.60;;;;;;5026475;28;20025;-57
2022/06/12 03:03:31;;;;;;;4.30;3.75;;;22.70;61.70;;;;;;5028073;28;20052;-59
2022/06/12 03:05:59;;;;;;;5.38;3.92;;;22.70;61.70;;;;;;5027314;28;20037;-59
2022/06/12 03:08:30;;;;;;;5.03;4.15;;;22.80;61.90;;;;;;5033921;28;20105;-59
2022/06/12 03:11:30;;;;;;;4.20;3.80;;;22.80;62.00;;;;;;5032010;28;20528;-58
2022/06/12 03:13:57;;;;;;;6.53;3.80;;;22.90;62.20;;;;;;5022897;28;20438;-58
2022/06/12 03:16:29;;;;;;;6.18;3.95;;;22.90;62.00;;;;;;5030734;28;20108;-58
2022/06/12 03:18:59;;;;;;;4.45;4.00;;;22.90;62.00;;;;;;5033135;28;20040;-58
2022/06/12 03:22:05;;;;;;;5.32;4.32;;;23.00;62.00;;;;;;5026621;28;20040;-58
2022/06/12 03:25:09;;;;;;;6.18;4.13;;;23.00;62.10;;;;;;5023056;28;20164;-59
2022/06/12 03:27:53;;;;;;;5.20;4.30;;;23.00;62.10;;;;;;5025346;28;20034;-58
2022/06/12 03:30:34;;;;;;;4.88;4.13;;;23.10;62.00;;;;;;5019319;28;20034;-58
2022/06/12 03:33:14;;;;;;;4.93;4.13;;;23.20;62.00;;;;;;5028644;28;20030;-59
2022/06/12 03:36:00;;;;;;;5.30;4.10;;;23.30;61.70;;;;;;5022319;28;20425;-59
2022/06/12 03:38:35;;;;;;;5.30;4.65;;;23.40;61.70;;;;;;5031882;28;20021;-59
2022/06/12 03:41:06;;;;;;;5.00;4.28;;;23.40;61.80;;;;;;5029991;28;20389;-58
2022/06/12 03:43:38;;;;;;;5.97;4.45;;;23.50;61.90;;;;;;5022787;28;20561;-59
2022/06/12 03:46:15;;;;;;;5.65;4.18;;;23.60;61.90;;;;;;5024283;28;20516;-59
2022/06/12 03:48:45;;;;;;;6.07;4.32;;;23.80;61.80;;;;;;5027278;28;20037;-59
2022/06/12 03:51:19;;;;;;;5.47;4.43;;;23.90;61.90;;;;;;5023668;28;20066;-59
2022/06/12 03:53:57;;;;;;;6.03;4.40;;;24.20;62.20;;;;;;5032153;28;20045;-58
2022/06/12 03:59:38;;;;;;;5.03;4.45;;;25.20;61.20;;;;;;5031793;28;20031;-58
2022/06/12 04:02:08;;;;;;;6.30;4.72;;;25.80;60.00;;;;;;5020504;28;20108;-59
2022/06/12 04:04:36;;;;;;;4.78;4.15;;;26.00;59.70;;;;;;5030566;28;20033;-59
2022/06/12 04:07:07;;;;;;;5.57;4.50;;;26.10;59.30;;;;;;5027564;28;20041;-59
2022/06/12 04:09:41;;;;;;;5.97;4.53;;;26.10;58.90;;;;;;5031840;28;20060;-59
2022/06/12 04:12:15;;;;;;;5.25;4.72;;;26.10;58.60;;;;;;5027209;28;20041;-59
2022/06/12 04:14:50;;;;;;;5.18;4.03;;;26.00;58.60;;;;;;5022598;28;20025;-59
2022/06/12 04:17:16;;;;;;;5.60;4.70;;;25.90;58.80;;;;;;5030083;28;20453;-59
2022/06/12 04:20:00;;;;;;;5.75;4.60;;;25.80;58.70;;;;;;5029854;28;20036;-59
2022/06/12 04:22:46;;;;;;;5.80;4.82;;;25.70;58.60;;;;;;5025085;28;20429;-58
2022/06/12 04:25:26;;;;;;;7.15;4.75;;;25.70;58.90;;;;;;5021348;28;20432;-58
2022/06/12 04:27:52;;;;;;;5.70;4.50;;;25.80;59.00;;;;;;5030516;28;20087;-58
2022/06/12 04:30:24;;;;;;;7.40;4.55;;;25.80;58.90;;;;;;5029735;28;20422;-59
2022/06/12 04:33:08;;;;;;;5.03;4.50;;;26.00;59.30;;;;;;5031214;28;20140;-58
2022/06/12 04:35:41;;;;;;;5.05;4.45;;;26.60;59.60;;;;;;5026437;28;20034;-58
2022/06/12 04:38:07;;;;;;;5.18;4.20;;;27.30;59.40;;;;;;5025049;28;20033;-59
2022/06/12 04:40:32;;;;;;;5.85;4.60;;;27.90;58.50;;;;;;5030146;28;20125;-58
2022/06/12 04:42:58;;;;;;;6.05;4.32;;;28.60;57.60;;;;;;5032722;28;20142;-59
2022/06/12 04:45:24;;;;;;;4.43;3.97;;;29.00;56.70;;;;;;5031691;28;20048;-59
2022/06/12 04:47:49;;;;;;;4.78;4.28;;;29.30;56.00;;;;;;5025907;28;20021;-59
2022/06/12 04:50:16;;;;;;;4.50;4.05;;;29.50;55.40;;;;;;5026741;28;20366;-58
2022/06/12 04:52:42;;;;;;;5.95;4.30;;;29.30;55.00;;;;;;5028799;28;20033;-59
2022/06/12 04:55:08;;;;;;;4.93;4.05;;;29.40;55.40;;;;;;5024858;28;20040;-59
2022/06/12 04:57:33;;;;;;;4.75;3.83;;;29.90;55.60;;;;;;5021279;28;20128;-59
2022/06/12 04:59:59;;;;;;;5.03;4.32;;;30.40;54.90;;;;;;5016327;28;20030;-59
2022/06/12 05:02:25;;;;;;;5.43;4.28;;;30.70;54.10;;;;;;5030412;28;20029;-59
2022/06/12 05:04:52;;;;;;;5.38;3.85;;;30.80;53.40;;;;;;5038571;28;20033;-59
2022/06/12 05:07:17;;;;;;;4.85;4.18;;;30.60;53.10;;;;;;5036093;28;20028;-59
2022/06/12 05:09:43;;;;;;;5.68;4.60;;;30.50;53.10;;;;;;5034658;28;20026;-59
2022/06/12 05:12:12;;;;;;;4.85;4.28;;;30.50;53.30;;;;;;5026799;28;20061;-59
2022/06/12 05:14:38;;;;;;;5.50;4.22;;;30.60;53.50;;;;;;5031914;28;20044;-59
2022/06/12 05:17:10;;;;;;;4.82;4.07;;;31.00;53.20;;;;;;5036603;28;20025;-58
2022/06/12 05:19:38;;;;;;;4.90;3.92;;;31.30;52.60;;;;;;5034829;28;20591;-59
2022/06/12 05:22:06;;;;;;;5.18;4.40;;;31.70;51.60;;;;;;5029875;28;20100;-59
2022/06/12 05:24:32;;;;;;;5.30;4.68;;;31.70;50.80;;;;;;5027633;28;20041;-59
2022/06/12 05:26:59;;;;;;;6.90;4.85;;;31.60;50.60;;;;;;5026727;28;20124;-59
2022/06/12 05:29:34;;;;;;;5.20;4.38;;;31.30;50.70;;;;;;5029080;28;20508;-59
2022/06/12 05:32:00;;;;;;;6.20;4.40;;;30.80;50.90;;;;;;5029157;28;20433;-59
2022/06/12 05:34:27;;;;;;;7.18;4.95;;;30.50;51.30;;;;;;5023975;28;20113;-58
2022/06/12 05:36:53;;;;;;;6.50;4.50;;;30.10;51.70;;;;;;5035335;28;20025;-59
2022/06/12 05:39:20;;;;;;;5.18;4.20;;;29.80;51.90;;;;;;5031550;28;20124;-59
2022/06/12 05:41:46;;;;;;;5.45;4.75;;;29.40;52.10;;;;;;5032835;28;20389;-59
2022/06/12 05:44:16;;;;;;;6.30;4.65;;;29.10;52.30;;;;;;5022071;28;20026;-59
2022/06/12 05:46:43;;;;;;;5.72;5.03;;;28.90;52.50;;;;;;5027081;28;20041;-59
2022/06/12 05:49:09;;;;;;;5.35;4.38;;;28.70;52.60;;;;;;5026226;28;20030;-59
2022/06/12 05:51:35;;;;;;;4.88;4.38;;;28.50;52.70;;;;;;5031319;28;20034;-58
2022/06/12 05:54:00;;;;;;;5.90;4.80;;;28.40;53.20;;;;;;5032978;28;20033;-59
2022/06/12 05:56:29;;;;;;;5.75;4.93;;;28.40;53.00;;;;;;5029489;28;20496;-57
2022/06/12 05:58:56;;;;;;;6.15;4.60;;;28.30;53.10;;;;;;5033887;28;20025;-59
2022/06/12 06:01:23;;;;;;;5.95;4.78;;;28.20;53.10;;;;;;5027169;28;20053;-58
2022/06/12 06:03:49;;;;;;;6.50;4.72;;;28.20;52.80;;;;;;5027672;28;20482;-59
2022/06/12 06:06:21;;;;;;;5.88;4.78;;;28.20;52.90;;;;;;5030206;28;20095;-59
2022/06/12 06:08:47;;;;;;;4.75;4.25;;;28.10;52.70;;;;;;5030270;28;20091;-59
2022/06/12 06:11:13;;;;;;;5.25;4.55;;;28.20;52.80;;;;;;5033487;28;20018;-58
2022/06/12 06:13:39;;;;;;;4.90;4.13;;;28.10;52.70;;;;;;5034716;28;20021;-58
2022/06/12 06:16:07;;;;;;;5.15;4.40;;;28.10;52.70;;;;;;5034370;28;20044;-58
2022/06/12 06:18:33;;;;;;;5.53;4.60;;;28.10;52.80;;;;;;5030824;28;20042;-59
2022/06/12 06:20:59;;;;;;;5.30;4.43;;;28.10;52.80;;;;;;5021127;28;20030;-59
2022/06/12 06:23:25;;;;;;;7.00;4.72;;;28.10;52.90;;;;;;5032830;28;20021;-59
2022/06/12 06:25:50;;;;;;;7.90;4.97;;;28.10;53.00;;;;;;5028138;28;20033;-59
2022/06/12 06:28:17;;;;;;;4.90;4.05;;;28.10;53.30;;;;;;5027537;28;20159;-59
2022/06/12 06:30:42;;;;;;;4.95;4.32;;;28.10;53.40;;;;;;5024715;28;20468;-59
2022/06/12 06:33:08;;;;;;;7.28;4.30;;;28.00;53.40;;;;;;5028966;28;20109;-59
2022/06/12 06:35:35;;;;;;;4.88;4.35;;;27.90;53.60;;;;;;5028057;28;20038;-59
2022/06/12 06:38:01;;;;;;;5.53;4.60;;;27.90;53.50;;;;;;5031037;28;20036;-59
2022/06/12 06:40:29;;;;;;;5.18;4.60;;;27.80;53.60;;;;;;5034169;28;20031;-59
2022/06/12 06:42:55;;;;;;;5.72;4.53;;;27.70;53.50;;;;;;5025056;28;20100;-59
2022/06/12 06:48:07;;;;;;;5.55;4.53;;;27.70;53.70;;;;;;5032517;28;20079;-59
2022/06/12 06:50:33;;;;;;;4.90;4.30;;;27.70;54.00;;;;;;5026813;28;20071;-59
2022/06/12 06:52:59;;;;;;;5.85;4.15;;;27.70;54.20;;;;;;5033419;28;20096;-59
2022/06/12 06:55:26;;;;;;;5.10;4.45;;;27.80;54.20;;;;;;5029949;28;20121;-59
2022/06/12 06:57:52;;;;;;;4.72;4.32;;;27.80;54.20;;;;;;5032497;28;20034;-59
2022/06/12 07:00:21;;;;;;;6.40;4.72;;;27.80;53.90;;;;;;5033217;28;20473;-60
2022/06/12 07:02:47;;;;;;;4.70;3.80;;;27.80;53.90;;;;;;5020785;28;20065;-59
2022/06/12 07:05:13;;;;;;;5.38;4.30;;;27.90;53.80;;;;;;5033764;28;20025;-58
2022/06/12 07:07:39;;;;;;;4.25;3.83;;;27.90;53.90;;;;;;5034239;28;20029;-59
2022/06/12 07:10:07;;;;;;;5.07;4.07;;;28.00;53.90;;;;;;5031445;28;20029;-59
2022/06/12 07:12:33;;;;;;;5.95;4.13;;;28.00;54.00;;;;;;5033322;28;20045;-59
2022/06/12 07:14:59;;;;;;;4.65;3.85;;;28.00;54.20;;;;;;5023104;28;20030;-59
2022/06/12 07:17:25;;;;;;;4.90;4.20;;;28.00;54.30;;;;;;5018629;28;20440;-59
2022/06/12 07:19:50;;;;;;;4.55;3.72;;;28.00;54.60;;;;;;5016147;28;20036;-59
2022/06/12 07:22:16;;;;;;;6.80;4.30;;;28.00;54.50;;;;;;5024140;28;20021;-59
2022/06/12 07:24:42;;;;;;;4.38;3.92;;;28.00;54.50;;;;;;5026379;28;20100;-59
2022/06/12 07:27:08;;;;;;;5.00;4.15;;;28.00;54.60;;;;;;5025159;28;20022;-59
2022/06/12 07:29:34;;;;;;;5.57;4.32;;;28.00;54.80;;;;;;5028308;28;20505;-59
2022/06/12 07:32:00;;;;;;;4.50;3.80;;;28.00;54.90;;;;;;5024227;28;20029;-58
2022/06/12 07:34:26;;;;;;;4.70;4.18;;;28.00;55.10;;;;;;5031012;28;20028;-59
2022/06/12 07:36:53;;;;;;;4.47;3.75;;;28.00;55.30;;;;;;5030171;28;20481;-59
2022/06/12 07:39:29;;;;;;;5.25;4.50;;;28.00;55.40;;;;;;5024790;28;20070;-59
2022/06/12 07:41:55;;;;;;;5.45;3.92;;;28.00;55.40;;;;;;5015374;28;20091;-59
2022/06/12 07:44:25;;;;;;;4.32;3.90;;;28.10;56.20;;;;;;5030578;28;20037;-59
2022/06/12 07:46:53;;;;;;;6.25;4.47;;;28.10;55.70;;;;;;5025240;28;20076;-58
2022/06/12 07:49:20;;;;;;;4.45;3.65;;;28.10;55.60;;;;;;5030086;28;20026;-59
2022/06/12 07:51:48;;;;;;;4.53;3.78;;;28.10;55.20;;;;;;5025358;28;20156;-59
2022/06/12 07:54:15;;;;;;;4.95;3.58;;;28.20;55.00;;;;;;5029442;28;20041;-59
2022/06/12 07:56:41;;;;;;;5.03;3.60;;;28.20;54.40;;;;;;5030434;28;20030;-59
2022/06/12 07:59:07;;;;;;;4.55;3.65;;;28.20;54.00;;;;;;5029891;28;20036;-59
2022/06/12 08:01:34;;;;;;;4.18;3.78;;;28.30;53.70;;;;;;5024473;28;20065;-59
2022/06/12 08:04:00;;;;;;;3.65;3.30;;;28.30;53.40;;;;;;5029761;28;20045;-58
2022/06/12 08:06:27;;;;;;;4.60;3.10;;;28.40;53.20;;;;;;5037989;28;20484;-58
2022/06/12 08:08:53;;;;;;;4.57;4.07;;;28.40;53.00;;;;;;5033341;28;20535;-58
2022/06/12 08:11:21;;;;;;;3.25;2.95;;;28.40;53.20;;;;;;5026039;28;20041;-59
2022/06/12 08:13:47;;;;;;;3.92;3.30;;;28.40;53.50;;;;;;5024178;28;20044;-59
2022/06/12 08:16:13;;;;;;;3.95;3.55;;;28.50;53.60;;;;;;5019802;28;20029;-59
2022/06/12 08:18:39;;;;;;;3.67;3.25;;;28.50;53.60;;;;;;5025043;28;20032;-59
2022/06/12 08:21:10;;;;;;;3.30;3.00;;;28.60;53.80;;;;;;5026867;28;20033;-59
2022/06/12 08:23:37;;;;;;;4.15;3.20;;;28.60;53.70;;;;;;5022161;28;20033;-59
2022/06/12 08:26:21;;;;;;;3.40;2.90;;;28.60;53.70;;;;;;5021770;28;20057;-59
2022/06/12 08:28:51;;;;;;;3.35;2.90;;;28.60;53.70;;;;;;5021511;28;20113;-59
2022/06/12 08:31:20;;;;;;;3.25;2.95;;;28.60;54.00;;;;;;5024602;28;20105;-58
2022/06/12 08:33:49;;;;;;;3.10;2.80;;;28.70;53.90;;;;;;5028593;28;20060;-59
2022/06/12 08:36:16;;;;;;;3.17;2.88;;;28.70;54.00;;;;;;5022740;28;20437;-58
2022/06/12 08:38:42;;;;;;;4.43;3.30;;;28.70;53.90;;;;;;5024481;28;20084;-59
2022/06/12 08:41:18;;;;;;;3.30;3.00;;;28.70;53.90;;;;;;5029914;28;20408;-59
2022/06/12 08:43:57;;;;;;;4.03;3.10;;;28.80;54.10;;;;;;5026173;28;20029;-59
2022/06/12 08:46:55;;;;;;;3.53;3.10;;;28.80;54.30;;;;;;5025470;28;20041;-59
2022/06/12 08:49:41;;;;;;;3.30;3.00;;;28.80;54.30;;;;;;5030614;28;20045;-58
2022/06/12 08:52:18;;;;;;;4.28;3.50;;;28.90;54.20;;;;;;5029754;28;20087;-58
2022/06/12 08:55:06;;;;;;;3.50;3.13;;;28.90;54.30;;;;;;5024352;28;20034;-59
2022/06/12 08:58:10;;;;;;;4.28;3.60;;;28.90;54.50;;;;;;5024441;28;20030;-57
2022/06/12 09:00:38;;;;;;;3.90;3.13;;;29.00;54.80;;;;;;5028898;28;20104;-59
2022/06/12 09:03:11;;;;;;;4.22;3.28;;;29.00;54.40;;;;;;5027745;28;20412;-59
2022/06/12 09:05:57;;;;;;;4.78;3.20;;;29.00;54.30;;;;;;5028111;28;20075;-58
2022/06/12 09:08:55;;;;;;;3.17;2.88;;;29.00;54.20;;;;;;5026683;28;20155;-58
2022/06/12 09:11:45;;;;;;;3.42;2.65;;;29.00;54.30;;;;;;5027490;28;20047;-58
2022/06/12 09:14:14;;;;;;;;;;;28.90;53.80;;;;;;5035685;28;20083;-58
2022/06/12 09:17:07;;;;;;;2.88;2.65;;;28.80;53.20;;;;;;5027291;28;20373;-58
2022/06/12 09:19:41;;;;;;;3.08;2.78;;;28.80;53.30;;;;;;5028067;28;20053;-58
2022/06/12 09:22:19;;;;;;;3.10;2.80;;;28.70;53.30;;;;;;5025544;28;20049;-58
2022/06/12 09:24:59;;;;;;;2.85;2.40;;;28.70;52.90;;;;;;5025791;28;20049;-58
2022/06/12 09:27:48;;;;;;;3.13;2.50;;;28.70;52.60;;;;;;5020002;28;20555;-58
2022/06/12 09:30:25;;;;;;;2.60;2.40;;;28.70;52.00;;;;;;5027261;28;20033;-58
2022/06/12 09:33:09;;;;;;;2.92;2.50;;;28.60;51.60;;;;;;5027816;28;20060;-58
2022/06/12 09:36:08;;;;;;;3.00;2.65;;;28.60;51.40;;;;;;5016350;28;20112;-58
2022/06/12 09:38:42;;;;;;;2.45;2.28;;;28.60;51.40;;;;;;5022577;28;20038;-59
2022/06/12 09:41:34;;;;;;;2.47;2.28;;;28.60;51.10;;;;;;5030615;28;20095;-57
2022/06/12 09:44:03;;;;;;;2.58;2.38;;;28.60;50.50;;;;;;5022996;28;20041;-58
2022/06/12 09:47:00;;;;;;;2.60;2.40;;;28.60;51.00;;;;;;5022200;28;20038;-58
2022/06/12 09:49:46;;;;;;;2.75;2.55;;;28.60;50.60;;;;;;5032946;28;20025;-58
2022/06/12 09:52:39;;;;;;;2.90;2.60;;;28.60;50.50;;;;;;5025233;28;20384;-59
2022/06/12 09:55:27;;;;;;;2.97;2.65;;;28.60;50.30;;;;;;5026601;28;20033;-59
2022/06/12 09:58:11;;;;;;;3.40;2.38;;;28.60;50.00;;;;;;5023219;28;20029;-59
2022/06/12 10:00:45;;;;;;;2.63;2.42;;;28.60;49.50;;;;;;5033968;28;20030;-59
2022/06/12 10:03:26;;;;;;;2.80;2.53;;;28.70;49.20;;;;;;5023972;28;20391;-58
2022/06/12 10:05:51;;;;;;;;;;;28.70;49.00;;;;;;5033603;28;20099;-57
2022/06/12 10:08:23;;;;;;;2.83;2.30;;;28.70;48.50;;;;;;5029927;28;19905;-60
2022/06/12 10:11:14;;;;;;;2.60;2.40;;;28.70;49.20;;;;;;5024994;28;20111;-60
2022/06/12 10:13:51;;;;;;;2.58;2.38;;;28.70;48.90;;;;;;5017584;28;20022;-58
2022/06/12 10:16:25;;;;;;;2.63;2.30;;;28.70;48.70;;;;;;5032028;28;20029;-58
2022/06/12 10:19:07;;;;;;;5.88;2.13;;;28.70;48.20;;;;;;5034033;28;20455;-58
2022/06/12 10:21:37;;;;;;;2.65;2.38;;;28.70;48.10;;;;;;5024031;28;20025;-58
2022/06/12 10:24:03;;;;;;;2.33;2.15;;;28.70;48.40;;;;;;5034004;28;20114;-59
2022/06/12 10:26:32;;;;;;;2.67;2.47;;;28.80;48.50;;;;;;5030257;28;20389;-59
2022/06/12 10:29:06;;;;;;;2.33;2.15;;;28.80;48.20;;;;;;5032742;28;20029;-58
2022/06/12 10:31:44;;;;;;;3.72;2.67;;;28.80;48.10;;;;;;5033634;28;20377;-58
2022/06/12 10:34:21;;;;;;;2.60;2.40;;;28.90;47.80;;;;;;5030213;28;20033;-59
2022/06/12 10:36:47;;;;;;;2.88;2.30;;;28.90;47.10;;;;;;5028667;28;20029;-59
2022/06/12 10:39:17;;;;;;;2.95;2.47;;;28.90;47.20;;;;;;5035162;28;20642;-58
2022/06/12 10:41:46;;;;;;;;;;;29.00;47.00;;;;;;5031246;28;20104;-59
2022/06/12 10:44:30;;;;;;;2.97;2.10;;;28.90;46.60;;;;;;5034126;28;19996;-59
2022/06/12 10:47:06;;;;;;;3.03;2.70;;;29.00;46.80;;;;;;5034597;28;20048;-59
2022/06/12 10:49:32;;;;;;;3.00;2.33;;;29.00;47.10;;;;;;5030527;28;20045;-59
2022/06/12 10:52:12;;;;;;;4.70;2.50;;;29.00;47.00;;;;;;5028208;28;20163;-59
2022/06/12 10:54:38;;;;;;;3.13;2.70;;;29.00;46.70;;;;;;5025491;28;20696;-59
2022/06/12 10:57:07;;;;;;;2.95;2.50;;;29.00;46.60;;;;;;5029759;28;20120;-58
2022/06/12 10:59:47;;;;;;;3.97;2.67;;;29.00;46.60;;;;;;5031567;28;20048;-59
2022/06/12 11:02:46;;;;;;;2.50;2.30;;;29.00;46.50;;;;;;5023892;28;20433;-59
2022/06/12 11:06:01;;;;;;;2.70;2.47;;;29.10;46.40;;;;;;5030484;28;20037;-58
2022/06/12 11:08:53;;;;;;;3.97;2.63;;;29.10;46.70;;;;;;5034966;28;20052;-58
2022/06/12 11:11:40;;;;;;;2.95;2.65;;;29.10;47.30;;;;;;5032306;28;20028;-59
2022/06/12 11:14:21;;;;;;;2.90;2.50;;;29.10;46.40;;;;;;5031708;28;20041;-58
2022/06/12 11:16:46;;;;;;;;;;;29.10;46.00;;;;;;5027984;28;20057;-58
2022/06/12 11:19:19;;;;;;;2.92;2.58;;;29.10;45.60;;;;;;5031065;28;19905;-58
2022/06/12 11:22:09;;;;;;;3.95;2.83;;;29.10;46.20;;;;;;5031619;28;20067;-59
2022/06/12 11:24:52;;;;;;;3.28;2.83;;;29.10;45.80;;;;;;5027956;28;20033;-58
2022/06/12 11:27:29;;;;;;;3.05;2.70;;;29.10;46.00;;;;;;5026412;28;20021;-59
2022/06/12 11:30:25;;;;;;;3.22;2.72;;;29.10;45.80;;;;;;5023134;28;20032;-58
2022/06/12 11:33:24;;;;;;;3.08;2.45;;;29.10;45.60;;;;;;5027500;28;20498;-58
2022/06/12 11:36:02;;;;;;;3.92;2.80;;;29.10;45.40;;;;;;5029089;28;20056;-59
2022/06/12 11:38:39;;;;;;;4.18;2.90;;;29.10;45.40;;;;;;5024054;28;20029;-58
2022/06/12 11:41:22;;;;;;;3.90;3.08;;;29.10;45.20;;;;;;5025961;28;20021;-59
2022/06/12 11:43:50;;;;;;;3.78;3.22;;;29.10;45.00;;;;;;5020317;28;20104;-60
2022/06/12 11:46:28;;;;;;;3.75;3.03;;;29.00;44.90;;;;;;5021465;28;20103;-59
2022/06/12 11:49:20;;;;;;;2.83;2.38;;;29.00;44.80;;;;;;5020433;28;20021;-59
2022/06/12 11:52:01;;;;;;;3.10;2.80;;;29.00;44.60;;;;;;5030818;28;20381;-60
2022/06/12 11:54:42;;;;;;;2.78;2.50;;;29.00;45.20;;;;;;5023995;28;20025;-60
2022/06/12 11:57:27;;;;;;;2.95;2.55;;;29.00;45.20;;;;;;5030456;28;20476;-59
2022/06/12 12:00:04;;;;;;;2.63;2.42;;;29.00;45.10;;;;;;5031336;28;20017;-59
2022/06/12 12:02:35;;;;;;;3.58;2.60;;;29.00;45.20;;;;;;5031318;28;20493;-59
2022/06/12 12:05:31;;;;;;;2.72;2.50;;;29.00;45.10;;;;;;5029806;28;20033;-59
2022/06/12 12:08:07;;;;;;;3.08;2.63;;;29.00;44.90;;;;;;5018945;28;20037;-59
2022/06/12 12:11:02;;;;;;;3.78;2.88;;;29.00;45.20;;;;;;5031105;28;20033;-61
2022/06/12 12:13:55;;;;;;;3.42;2.70;;;29.00;45.20;;;;;;5024201;28;20377;-60
2022/06/12 12:16:24;;;;;;;2.88;2.42;;;29.00;45.20;;;;;;5030178;28;20056;-59
2022/06/12 12:19:02;;;;;;;2.70;2.50;;;29.00;45.20;;;;;;5022926;28;20104;-59
2022/06/12 12:21:59;;;;;;;3.83;2.95;;;29.00;45.10;;;;;;5032195;28;20020;-59
2022/06/12 12:24:48;;;;;;;2.65;2.30;;;29.00;45.10;;;;;;5027714;28;20036;-59
2022/06/12 12:27:25;;;;;;;2.83;2.50;;;28.90;45.00;;;;;;5021362;28;20034;-59
2022/06/12 12:29:53;;;;;;;4.75;3.25;;;29.00;44.80;;;;;;5030536;28;20128;-58
2022/06/12 12:32:20;;;;;;;4.55;3.63;;;29.00;45.50;;;;;;5032224;28;20484;-59
2022/06/12 12:34:52;;;;;;;4.15;3.75;;;29.00;46.50;;;;;;5027265;28;20026;-59
2022/06/12 12:42:47;;;;;;;5.18;4.53;;;29.00;47.80;;;;;;5030830;28;20520;-59
2022/06/12 12:45:22;;;;;;;6.57;4.82;;;29.00;48.80;;;;;;5028211;28;20034;-59
2022/06/12 12:48:12;;;;;;;5.18;4.68;;;29.00;48.90;;;;;;5026904;28;20037;-59
2022/06/12 12:50:53;;;;;;;5.72;4.90;;;29.00;49.20;;;;;;5022136;28;20033;-59
2022/06/12 12:53:29;;;;;;;5.38;4.57;;;29.00;49.10;;;;;;5031142;28;20034;-59
2022/06/12 12:56:04;;;;;;;4.80;4.32;;;29.00;48.80;;;;;;5029102;28;20029;-59
2022/06/12 12:58:32;;;;;;;6.38;4.63;;;29.00;48.70;;;;;;5031170;28;20033;-59
2022/06/12 13:01:04;;;;;;;6.55;5.05;;;29.00;48.60;;;;;;5021058;28;20026;-59
2022/06/12 13:03:41;;;;;;;4.93;4.40;;;29.00;48.70;;;;;;5029961;28;20030;-59
2022/06/12 13:06:41;;;;;;;7.40;4.82;;;29.00;48.50;;;;;;5029033;28;20037;-59
2022/06/12 13:09:44;;;;;;;5.10;4.60;;;29.00;48.60;;;;;;5026599;28;20064;-59
2022/06/12 13:12:36;;;;;;;6.25;4.97;;;29.10;49.20;;;;;;5031266;28;20292;-59
2022/06/12 13:15:36;;;;;;;5.57;4.53;;;29.10;49.10;;;;;;5030994;28;20129;-59
2022/06/12 13:18:22;;;;;;;5.38;4.88;;;29.10;49.50;;;;;;5021592;28;20049;-60
2022/06/12 13:20:56;;;;;;;4.55;4.15;;;29.10;49.50;;;;;;5025569;28;20056;-60
2022/06/12 13:23:51;;;;;;;5.32;4.60;;;29.10;49.70;;;;;;5032744;28;20029;-60
2022/06/12 13:26:19;;;;;;;5.00;4.25;;;29.10;49.80;;;;;;5024336;28;20052;-59
2022/06/12 13:28:54;;;;;;;5.90;5.00;;;29.00;49.80;;;;;;5030795;28;20022;-60
2022/06/12 13:31:21;;;;;;;5.63;4.30;;;29.00;50.10;;;;;;5017676;28;20025;-60
2022/06/12 13:33:58;;;;;;;5.15;4.47;;;29.00;50.40;;;;;;5027437;28;20056;-59
2022/06/12 13:36:38;;;;;;;5.68;4.47;;;28.90;50.90;;;;;;5014265;28;20113;-59
2022/06/12 13:39:16;;;;;;;5.40;4.30;;;28.90;51.00;;;;;;5027059;28;20101;-59
2022/06/12 13:41:44;;;;;;;5.50;4.85;;;28.80;51.50;;;;;;5028539;28;20045;-59